Forside
METAR-TAF:

METAR-TAF

Lufthavne :

Niamey, Niger

Breddekreds: 13-29N, længdekreds: 002-10E, højde: 223 m

Aktuelle vejr

Denne rapport blev lavet for 28 minutter siden, kl. 02:00 UTC
Vind 2 kt fra østsydøst
Temperatur 23°C
Fugtighed 27%
Tryk 1012 hPa
Sigt: 6000 m

METAR: DRRN 170200Z 12002KT 6000 NSC 23/03 Q1012 NOSIG

Tid: 03:28 (02:28 UTC)

Vejrudsigter

Denne rapport blev lavet for 3 timer og 28 minutter siden, kl. 23:00 UTC
Foreløbig gælder fra 17 på 00 UTC til 18 på 06 UTC
Vind 8 kt fra øst
Sigt: 5000 m
Udbredt støv
Midlertidig
fra 17 på 02 UTC til 17 på 07 UTC
Sigt: 2500 m
Midlertidig
mellem 10 og 01 UTC
Sigt: 1500 m
blæsende støv

TAF: DRRN 162300Z 1700/1806 10008KT 5000 DU NSC TEMPO 1702/1707 2500 TEMPO 10018KT 1500 BLDU

Vejrobservationer og prognoser fra mere end 4000 lufthavne (METAR og TAF).

De gule og røde prikker repræsenterer de meteorologiske stationer.

Flyt musen over at se navnet på stationen.

Så klik over at se vejr observationer og prognoser.

At skifte det kort: Klik på de grønne knapper med et sort kors for at zoome ind; på den grønne knap med en bindestreg for at zoome ud; eller på de grønne pile for tilstødende kort.


METAR-TAF: